createdAt,value
2018-05-14T00:02:34.274Z,54.49
2018-05-14T00:17:34.066Z,54.75
2018-05-14T00:32:34.239Z,54.86
2018-05-14T00:47:36.410Z,55.13
2018-05-14T01:02:34.558Z,55.46
2018-05-14T01:17:34.355Z,55.45
2018-05-14T01:32:34.296Z,55.77
2018-05-14T01:47:34.674Z,56.30
2018-05-14T02:02:34.874Z,56.10
2018-05-14T02:17:34.632Z,56.42
2018-05-14T02:32:34.594Z,56.57
2018-05-14T02:47:33.998Z,55.94
2018-05-14T03:02:33.962Z,59.35
2018-05-14T03:17:34.188Z,63.82
2018-05-14T03:32:36.106Z,66.86
2018-05-14T03:47:36.506Z,68.73
2018-05-14T04:02:46.256Z,69.90
2018-05-14T04:17:36.537Z,70.37
2018-05-14T04:32:36.182Z,70.88
2018-05-14T04:47:36.509Z,70.86
2018-05-14T05:02:34.754Z,70.27
2018-05-14T05:17:34.623Z,69.52
2018-05-14T05:32:34.428Z,68.75
2018-05-14T05:47:34.827Z,67.78
2018-05-14T06:02:35.012Z,66.78
2018-05-14T06:17:34.974Z,64.58
2018-05-14T06:32:35.416Z,61.72
2018-05-14T06:47:36.350Z,55.77
2018-05-14T07:02:36.037Z,53.84
2018-05-14T07:17:34.804Z,50.44
2018-05-14T07:32:35.833Z,48.75
2018-05-14T07:47:34.691Z,46.45
2018-05-14T08:02:34.646Z,44.48
2018-05-14T08:17:35.193Z,43.64
2018-05-14T08:32:34.957Z,42.85
2018-05-14T08:47:35.091Z,41.21
2018-05-14T09:02:34.943Z,40.17
2018-05-14T09:17:34.778Z,43.93
2018-05-14T09:32:34.752Z,44.86
2018-05-14T09:47:35.219Z,44.57
2018-05-14T10:02:36.738Z,42.01
2018-05-14T10:17:36.270Z,39.60
2018-05-14T10:32:35.686Z,41.03
2018-05-14T10:47:34.497Z,45.43
2018-05-14T11:02:34.625Z,47.97
2018-05-14T11:17:35.896Z,51.48
2018-05-14T11:32:34.655Z,56.71
2018-05-14T11:47:35.082Z,64.36
2018-05-14T12:02:34.794Z,64.03
2018-05-14T12:17:36.158Z,63.80
2018-05-14T12:32:34.893Z,61.53
2018-05-14T12:47:34.350Z,60.35
2018-05-14T13:02:34.813Z,59.16
2018-05-14T13:17:34.829Z,61.44
2018-05-14T13:32:34.812Z,61.60
2018-05-14T13:47:35.138Z,59.64
2018-05-14T14:02:36.822Z,57.85
2018-05-14T14:17:35.089Z,57.65
2018-05-14T14:32:35.094Z,58.01
2018-05-14T14:47:34.601Z,56.16
2018-05-14T15:02:36.567Z,56.97
2018-05-14T15:17:37.502Z,57.24
2018-05-14T15:32:34.784Z,58.82
2018-05-14T15:47:34.842Z,60.96
2018-05-14T16:02:34.891Z,59.11
2018-05-14T16:17:36.716Z,60.44
2018-05-14T16:32:37.184Z,60.76
2018-05-14T16:47:35.041Z,61.63
2018-05-14T17:02:35.035Z,62.21
2018-05-14T17:17:37.116Z,64.92
2018-05-14T17:32:34.366Z,62.92
2018-05-14T17:47:34.490Z,65.24
2018-05-14T18:02:33.832Z,67.49
2018-05-14T18:17:34.383Z,68.33
2018-05-14T18:32:36.840Z,69.99
2018-05-14T18:47:35.965Z,70.91
2018-05-14T19:02:37.872Z,71.54
2018-05-14T19:17:40.584Z,71.76
2018-05-14T19:32:37.086Z,71.91
2018-05-14T19:47:35.066Z,72.15
2018-05-14T20:02:34.931Z,72.56
2018-05-14T20:17:35.072Z,72.94
2018-05-14T20:32:33.920Z,73.18
2018-05-14T20:47:38.914Z,73.40
2018-05-14T21:02:33.851Z,73.52
2018-05-14T21:17:34.458Z,74.67
2018-05-14T21:32:36.847Z,73.12
2018-05-14T21:47:36.814Z,71.89
2018-05-14T22:02:36.392Z,71.41
2018-05-14T22:17:35.173Z,71.54
2018-05-14T22:32:38.267Z,71.05
2018-05-14T22:47:34.935Z,70.80
2018-05-14T23:02:35.199Z,70.79
2018-05-14T23:17:37.272Z,70.44
2018-05-14T23:32:34.423Z,70.50
2018-05-14T23:47:38.266Z,70.05
